sensor_id;sensor_type;location;lat;lon;timestamp;P1;durP1;ratioP1;P2;durP2;ratioP2
12886;SDS011;6511;49.746;6.094;2022-09-28T00:01:08;7.75;;;2.40;;
12886;SDS011;6511;49.746;6.094;2022-09-28T00:03:39;7.18;;;2.20;;
12886;SDS011;6511;49.746;6.094;2022-09-28T00:06:06;5.97;;;2.00;;
12886;SDS011;6511;49.746;6.094;2022-09-28T00:08:33;8.30;;;2.10;;
12886;SDS011;6511;49.746;6.094;2022-09-28T00:11:00;7.53;;;2.17;;
12886;SDS011;6511;49.746;6.094;2022-09-28T00:13:27;7.28;;;2.55;;
12886;SDS011;6511;49.746;6.094;2022-09-28T00:18:27;5.60;;;1.90;;
12886;SDS011;6511;49.746;6.094;2022-09-28T00:21:26;5.18;;;1.88;;
12886;SDS011;6511;49.746;6.094;2022-09-28T00:23:46;6.47;;;2.10;;
12886;SDS011;6511;49.746;6.094;2022-09-28T00:26:33;5.03;;;2.00;;
12886;SDS011;6511;49.746;6.094;2022-09-28T00:29:00;6.70;;;2.10;;
12886;SDS011;6511;49.746;6.094;2022-09-28T00:31:26;5.82;;;1.80;;
12886;SDS011;6511;49.746;6.094;2022-09-28T00:33:55;5.97;;;2.10;;
12886;SDS011;6511;49.746;6.094;2022-09-28T00:36:22;6.93;;;2.13;;
12886;SDS011;6511;49.746;6.094;2022-09-28T00:38:48;7.55;;;2.25;;
12886;SDS011;6511;49.746;6.094;2022-09-28T00:41:15;6.03;;;1.98;;
12886;SDS011;6511;49.746;6.094;2022-09-28T00:43:41;8.77;;;2.40;;
12886;SDS011;6511;49.746;6.094;2022-09-28T00:48:51;6.57;;;2.10;;
12886;SDS011;6511;49.746;6.094;2022-09-28T00:51:21;5.90;;;2.20;;
12886;SDS011;6511;49.746;6.094;2022-09-28T00:53:48;5.75;;;2.10;;
12886;SDS011;6511;49.746;6.094;2022-09-28T00:56:15;7.35;;;2.42;;
12886;SDS011;6511;49.746;6.094;2022-09-28T00:58:45;6.20;;;2.20;;
12886;SDS011;6511;49.746;6.094;2022-09-28T01:01:14;6.80;;;2.33;;
12886;SDS011;6511;49.746;6.094;2022-09-28T01:03:40;7.20;;;2.47;;
12886;SDS011;6511;49.746;6.094;2022-09-28T01:06:09;7.13;;;2.30;;
12886;SDS011;6511;49.746;6.094;2022-09-28T01:08:41;6.63;;;2.45;;
12886;SDS011;6511;49.746;6.094;2022-09-28T01:11:09;8.38;;;2.20;;
12886;SDS011;6511;49.746;6.094;2022-09-28T01:13:35;6.97;;;2.30;;
12886;SDS011;6511;49.746;6.094;2022-09-28T01:21:24;7.70;;;2.37;;
12886;SDS011;6511;49.746;6.094;2022-09-28T01:29:02;6.73;;;2.73;;
12886;SDS011;6511;49.746;6.094;2022-09-28T01:31:50;8.20;;;2.67;;
12886;SDS011;6511;49.746;6.094;2022-09-28T01:34:24;7.97;;;2.53;;
12886;SDS011;6511;49.746;6.094;2022-09-28T01:36:55;8.18;;;2.63;;
12886;SDS011;6511;49.746;6.094;2022-09-28T01:39:28;5.93;;;2.60;;
12886;SDS011;6511;49.746;6.094;2022-09-28T01:42:03;7.18;;;2.40;;
12886;SDS011;6511;49.746;6.094;2022-09-28T01:44:35;6.85;;;2.47;;
12886;SDS011;6511;49.746;6.094;2022-09-28T01:47:06;7.18;;;2.72;;
12886;SDS011;6511;49.746;6.094;2022-09-28T01:49:36;8.20;;;2.97;;
12886;SDS011;6511;49.746;6.094;2022-09-28T01:54:31;6.10;;;2.60;;
12886;SDS011;6511;49.746;6.094;2022-09-28T01:59:32;8.15;;;2.90;;
12886;SDS011;6511;49.746;6.094;2022-09-28T02:02:05;7.53;;;2.45;;
12886;SDS011;6511;49.746;6.094;2022-09-28T02:04:49;7.40;;;2.60;;
12886;SDS011;6511;49.746;6.094;2022-09-28T02:07:25;8.65;;;2.60;;
12886;SDS011;6511;49.746;6.094;2022-09-28T02:10:05;6.85;;;2.58;;
12886;SDS011;6511;49.746;6.094;2022-09-28T02:12:41;8.88;;;2.50;;
12886;SDS011;6511;49.746;6.094;2022-09-28T02:15:13;8.37;;;2.77;;
12886;SDS011;6511;49.746;6.094;2022-09-28T02:17:45;7.90;;;2.53;;
12886;SDS011;6511;49.746;6.094;2022-09-28T02:20:11;9.13;;;2.53;;
12886;SDS011;6511;49.746;6.094;2022-09-28T02:22:40;7.60;;;2.55;;
12886;SDS011;6511;49.746;6.094;2022-09-28T02:28:13;6.15;;;2.47;;
12886;SDS011;6511;49.746;6.094;2022-09-28T02:30:40;7.57;;;2.50;;
12886;SDS011;6511;49.746;6.094;2022-09-28T02:33:12;7.18;;;2.53;;
12886;SDS011;6511;49.746;6.094;2022-09-28T02:35:55;7.75;;;2.47;;
12886;SDS011;6511;49.746;6.094;2022-09-28T02:38:22;7.38;;;2.72;;
12886;SDS011;6511;49.746;6.094;2022-09-28T02:41:00;8.30;;;2.90;;
12886;SDS011;6511;49.746;6.094;2022-09-28T02:58:02;6.85;;;3.00;;
12886;SDS011;6511;49.746;6.094;2022-09-28T03:00:56;10.98;;;3.67;;
12886;SDS011;6511;49.746;6.094;2022-09-28T03:03:45;8.45;;;3.50;;
12886;SDS011;6511;49.746;6.094;2022-09-28T03:06:21;9.50;;;3.83;;
12886;SDS011;6511;49.746;6.094;2022-09-28T03:08:56;9.07;;;3.50;;
12886;SDS011;6511;49.746;6.094;2022-09-28T03:11:25;7.32;;;3.40;;
12886;SDS011;6511;49.746;6.094;2022-09-28T03:13:56;9.23;;;3.50;;
12886;SDS011;6511;49.746;6.094;2022-09-28T03:16:23;11.20;;;3.75;;
12886;SDS011;6511;49.746;6.094;2022-09-28T03:18:50;9.15;;;4.22;;
12886;SDS011;6511;49.746;6.094;2022-09-28T03:21:15;7.27;;;3.50;;
12886;SDS011;6511;49.746;6.094;2022-09-28T03:23:41;10.63;;;4.40;;
12886;SDS011;6511;49.746;6.094;2022-09-28T03:26:08;10.02;;;4.00;;
12886;SDS011;6511;49.746;6.094;2022-09-28T03:28:35;8.65;;;3.88;;
12886;SDS011;6511;49.746;6.094;2022-09-28T03:31:01;10.67;;;4.80;;
12886;SDS011;6511;49.746;6.094;2022-09-28T03:33:27;10.60;;;4.97;;
12886;SDS011;6511;49.746;6.094;2022-09-28T03:35:53;11.37;;;4.97;;
12886;SDS011;6511;49.746;6.094;2022-09-28T03:38:19;10.85;;;4.60;;
12886;SDS011;6511;49.746;6.094;2022-09-28T03:40:52;12.18;;;5.32;;
12886;SDS011;6511;49.746;6.094;2022-09-28T03:43:19;11.60;;;4.83;;
12886;SDS011;6511;49.746;6.094;2022-09-28T03:45:54;13.07;;;5.30;;
12886;SDS011;6511;49.746;6.094;2022-09-28T03:48:24;11.10;;;5.00;;
12886;SDS011;6511;49.746;6.094;2022-09-28T03:50:55;12.13;;;4.63;;
12886;SDS011;6511;49.746;6.094;2022-09-28T03:53:22;14.07;;;5.32;;
12886;SDS011;6511;49.746;6.094;2022-09-28T03:55:48;12.07;;;5.20;;
12886;SDS011;6511;49.746;6.094;2022-09-28T03:58:15;11.52;;;5.05;;
12886;SDS011;6511;49.746;6.094;2022-09-28T04:00:41;12.93;;;5.50;;
12886;SDS011;6511;49.746;6.094;2022-09-28T04:03:07;12.27;;;5.60;;
12886;SDS011;6511;49.746;6.094;2022-09-28T04:05:33;13.05;;;5.72;;
12886;SDS011;6511;49.746;6.094;2022-09-28T04:07:58;15.13;;;6.40;;
12886;SDS011;6511;49.746;6.094;2022-09-28T04:10:24;13.80;;;6.00;;
12886;SDS011;6511;49.746;6.094;2022-09-28T04:12:53;14.35;;;6.65;;
12886;SDS011;6511;49.746;6.094;2022-09-28T04:15:25;14.55;;;8.13;;
12886;SDS011;6511;49.746;6.094;2022-09-28T04:17:51;16.08;;;8.00;;
12886;SDS011;6511;49.746;6.094;2022-09-28T04:20:16;17.40;;;8.63;;
12886;SDS011;6511;49.746;6.094;2022-09-28T04:22:42;18.73;;;8.77;;
12886;SDS011;6511;49.746;6.094;2022-09-28T04:25:08;16.10;;;8.47;;
12886;SDS011;6511;49.746;6.094;2022-09-28T04:27:34;16.65;;;8.20;;
12886;SDS011;6511;49.746;6.094;2022-09-28T04:30:18;15.43;;;7.97;;
12886;SDS011;6511;49.746;6.094;2022-09-28T04:32:45;16.63;;;7.80;;
12886;SDS011;6511;49.746;6.094;2022-09-28T04:35:11;14.35;;;7.45;;
12886;SDS011;6511;49.746;6.094;2022-09-28T04:37:37;14.98;;;7.72;;
12886;SDS011;6511;49.746;6.094;2022-09-28T04:40:03;15.53;;;8.10;;
12886;SDS011;6511;49.746;6.094;2022-09-28T04:42:29;17.10;;;8.25;;
12886;SDS011;6511;49.746;6.094;2022-09-28T04:44:54;14.03;;;7.27;;
12886;SDS011;6511;49.746;6.094;2022-09-28T04:47:21;15.30;;;8.20;;
12886;SDS011;6511;49.746;6.094;2022-09-28T04:49:47;19.83;;;8.88;;
12886;SDS011;6511;49.746;6.094;2022-09-28T04:52:13;19.40;;;9.80;;
12886;SDS011;6511;49.746;6.094;2022-09-28T04:54:38;21.13;;;10.40;;
12886;SDS011;6511;49.746;6.094;2022-09-28T04:57:04;17.58;;;9.98;;
12886;SDS011;6511;49.746;6.094;2022-09-28T04:59:30;22.37;;;10.10;;
12886;SDS011;6511;49.746;6.094;2022-09-28T05:01:56;20.25;;;9.75;;
12886;SDS011;6511;49.746;6.094;2022-09-28T05:04:22;15.05;;;9.23;;
12886;SDS011;6511;49.746;6.094;2022-09-28T05:06:47;15.40;;;8.90;;
12886;SDS011;6511;49.746;6.094;2022-09-28T05:09:13;15.57;;;8.90;;
12886;SDS011;6511;49.746;6.094;2022-09-28T05:11:39;15.95;;;8.90;;
12886;SDS011;6511;49.746;6.094;2022-09-28T05:14:04;18.67;;;9.27;;
12886;SDS011;6511;49.746;6.094;2022-09-28T05:16:30;15.38;;;8.40;;
12886;SDS011;6511;49.746;6.094;2022-09-28T05:18:57;17.27;;;9.75;;
12886;SDS011;6511;49.746;6.094;2022-09-28T05:21:24;20.38;;;9.82;;
12886;SDS011;6511;49.746;6.094;2022-09-28T05:23:50;19.90;;;10.35;;
12886;SDS011;6511;49.746;6.094;2022-09-28T05:26:16;18.85;;;9.70;;
12886;SDS011;6511;49.746;6.094;2022-09-28T05:28:42;15.98;;;8.75;;
12886;SDS011;6511;49.746;6.094;2022-09-28T05:31:08;13.07;;;7.07;;
12886;SDS011;6511;49.746;6.094;2022-09-28T05:33:34;16.27;;;9.07;;
12886;SDS011;6511;49.746;6.094;2022-09-28T05:36:01;18.25;;;9.95;;
12886;SDS011;6511;49.746;6.094;2022-09-28T05:38:27;18.70;;;9.82;;
12886;SDS011;6511;49.746;6.094;2022-09-28T05:40:54;19.65;;;10.90;;
12886;SDS011;6511;49.746;6.094;2022-09-28T05:43:19;18.93;;;9.80;;
12886;SDS011;6511;49.746;6.094;2022-09-28T05:45:45;22.33;;;11.23;;
12886;SDS011;6511;49.746;6.094;2022-09-28T05:48:11;23.15;;;11.40;;
12886;SDS011;6511;49.746;6.094;2022-09-28T05:50:37;23.83;;;11.70;;
12886;SDS011;6511;49.746;6.094;2022-09-28T05:53:04;22.63;;;12.63;;
12886;SDS011;6511;49.746;6.094;2022-09-28T05:55:32;19.85;;;11.55;;
12886;SDS011;6511;49.746;6.094;2022-09-28T05:57:59;17.97;;;11.30;;
12886;SDS011;6511;49.746;6.094;2022-09-28T06:00:26;19.00;;;10.93;;
12886;SDS011;6511;49.746;6.094;2022-09-28T06:02:56;13.20;;;8.70;;
12886;SDS011;6511;49.746;6.094;2022-09-28T06:05:24;16.47;;;9.57;;
12886;SDS011;6511;49.746;6.094;2022-09-28T06:07:51;13.27;;;8.40;;
12886;SDS011;6511;49.746;6.094;2022-09-28T06:10:18;14.18;;;9.30;;
12886;SDS011;6511;49.746;6.094;2022-09-28T06:12:44;15.87;;;10.13;;
12886;SDS011;6511;49.746;6.094;2022-09-28T06:15:12;16.35;;;10.65;;
12886;SDS011;6511;49.746;6.094;2022-09-28T06:17:38;15.63;;;10.73;;
12886;SDS011;6511;49.746;6.094;2022-09-28T06:20:04;18.05;;;9.73;;
12886;SDS011;6511;49.746;6.094;2022-09-28T06:22:29;16.50;;;10.07;;
12886;SDS011;6511;49.746;6.094;2022-09-28T06:24:55;15.02;;;10.13;;
12886;SDS011;6511;49.746;6.094;2022-09-28T06:27:21;16.03;;;10.50;;
12886;SDS011;6511;49.746;6.094;2022-09-28T06:29:46;15.60;;;9.88;;
12886;SDS011;6511;49.746;6.094;2022-09-28T06:32:12;18.30;;;10.60;;
12886;SDS011;6511;49.746;6.094;2022-09-28T06:34:38;16.67;;;10.60;;
12886;SDS011;6511;49.746;6.094;2022-09-28T06:37:06;18.45;;;11.30;;
12886;SDS011;6511;49.746;6.094;2022-09-28T06:39:31;18.90;;;11.50;;
12886;SDS011;6511;49.746;6.094;2022-09-28T06:41:57;16.90;;;10.75;;
12886;SDS011;6511;49.746;6.094;2022-09-28T06:44:28;15.43;;;10.50;;
12886;SDS011;6511;49.746;6.094;2022-09-28T06:46:56;17.90;;;11.52;;
12886;SDS011;6511;49.746;6.094;2022-09-28T06:49:21;18.77;;;12.98;;
12886;SDS011;6511;49.746;6.094;2022-09-28T06:51:47;18.17;;;13.17;;
12886;SDS011;6511;49.746;6.094;2022-09-28T06:54:13;17.25;;;11.80;;
12886;SDS011;6511;49.746;6.094;2022-09-28T06:56:39;17.07;;;12.50;;
12886;SDS011;6511;49.746;6.094;2022-09-28T06:59:04;16.27;;;12.00;;
12886;SDS011;6511;49.746;6.094;2022-09-28T07:01:30;18.00;;;12.20;;
12886;SDS011;6511;49.746;6.094;2022-09-28T07:03:56;15.17;;;11.80;;
12886;SDS011;6511;49.746;6.094;2022-09-28T07:06:22;16.75;;;11.23;;
12886;SDS011;6511;49.746;6.094;2022-09-28T07:08:50;15.18;;;11.50;;
12886;SDS011;6511;49.746;6.094;2022-09-28T07:11:15;17.27;;;11.60;;
12886;SDS011;6511;49.746;6.094;2022-09-28T07:13:44;19.90;;;11.90;;
12886;SDS011;6511;49.746;6.094;2022-09-28T07:16:12;17.00;;;11.65;;
12886;SDS011;6511;49.746;6.094;2022-09-28T07:18:38;15.73;;;11.20;;
12886;SDS011;6511;49.746;6.094;2022-09-28T07:21:04;13.68;;;9.65;;
12886;SDS011;6511;49.746;6.094;2022-09-28T07:23:31;14.35;;;9.77;;
12886;SDS011;6511;49.746;6.094;2022-09-28T07:25:57;13.07;;;9.93;;
12886;SDS011;6511;49.746;6.094;2022-09-28T07:28:27;13.45;;;10.05;;
12886;SDS011;6511;49.746;6.094;2022-09-28T07:30:55;15.15;;;10.10;;
12886;SDS011;6511;49.746;6.094;2022-09-28T07:33:21;12.43;;;8.87;;
12886;SDS011;6511;49.746;6.094;2022-09-28T07:35:49;12.52;;;9.10;;
12886;SDS011;6511;49.746;6.094;2022-09-28T07:38:16;13.60;;;9.10;;
12886;SDS011;6511;49.746;6.094;2022-09-28T07:40:42;14.10;;;9.00;;
12886;SDS011;6511;49.746;6.094;2022-09-28T07:43:26;12.18;;;8.35;;
12886;SDS011;6511;49.746;6.094;2022-09-28T07:45:52;12.45;;;7.95;;
12886;SDS011;6511;49.746;6.094;2022-09-28T07:48:19;12.20;;;7.57;;
12886;SDS011;6511;49.746;6.094;2022-09-28T07:53:16;12.43;;;7.82;;
12886;SDS011;6511;49.746;6.094;2022-09-28T07:55:43;10.70;;;7.70;;
12886;SDS011;6511;49.746;6.094;2022-09-28T07:58:17;11.87;;;6.87;;
12886;SDS011;6511;49.746;6.094;2022-09-28T08:00:45;11.23;;;7.28;;
12886;SDS011;6511;49.746;6.094;2022-09-28T08:03:12;13.23;;;7.88;;
12886;SDS011;6511;49.746;6.094;2022-09-28T08:05:39;10.10;;;6.68;;
12886;SDS011;6511;49.746;6.094;2022-09-28T08:08:06;13.07;;;6.55;;
12886;SDS011;6511;49.746;6.094;2022-09-28T08:10:32;9.95;;;6.18;;
12886;SDS011;6511;49.746;6.094;2022-09-28T08:12:58;9.47;;;5.70;;
12886;SDS011;6511;49.746;6.094;2022-09-28T08:15:28;9.18;;;5.38;;
12886;SDS011;6511;49.746;6.094;2022-09-28T08:18:00;10.17;;;5.20;;
12886;SDS011;6511;49.746;6.094;2022-09-28T08:20:25;9.13;;;5.50;;
12886;SDS011;6511;49.746;6.094;2022-09-28T08:23:09;10.05;;;5.05;;
12886;SDS011;6511;49.746;6.094;2022-09-28T08:25:36;9.95;;;6.13;;
12886;SDS011;6511;49.746;6.094;2022-09-28T08:28:02;8.88;;;5.47;;
12886;SDS011;6511;49.746;6.094;2022-09-28T08:30:28;7.50;;;4.75;;
12886;SDS011;6511;49.746;6.094;2022-09-28T08:32:55;7.53;;;4.72;;
12886;SDS011;6511;49.746;6.094;2022-09-28T08:35:21;8.85;;;4.40;;
12886;SDS011;6511;49.746;6.094;2022-09-28T08:37:50;8.50;;;4.90;;
12886;SDS011;6511;49.746;6.094;2022-09-28T08:40:19;7.28;;;4.20;;
12886;SDS011;6511;49.746;6.094;2022-09-28T08:42:48;7.88;;;4.10;;
12886;SDS011;6511;49.746;6.094;2022-09-28T08:45:22;9.07;;;4.70;;
12886;SDS011;6511;49.746;6.094;2022-09-28T08:48:11;7.47;;;4.82;;
12886;SDS011;6511;49.746;6.094;2022-09-28T08:50:58;7.43;;;4.20;;
12886;SDS011;6511;49.746;6.094;2022-09-28T08:53:31;8.00;;;4.57;;
12886;SDS011;6511;49.746;6.094;2022-09-28T08:56:01;7.43;;;4.60;;
12886;SDS011;6511;49.746;6.094;2022-09-28T08:58:34;7.50;;;4.40;;
12886;SDS011;6511;49.746;6.094;2022-09-28T09:01:06;7.68;;;4.00;;
12886;SDS011;6511;49.746;6.094;2022-09-28T09:03:40;6.60;;;3.50;;
12886;SDS011;6511;49.746;6.094;2022-09-28T09:14:58;7.65;;;4.00;;
12886;SDS011;6511;49.746;6.094;2022-09-28T09:17:34;7.53;;;3.70;;
12886;SDS011;6511;49.746;6.094;2022-09-28T09:22:57;6.03;;;3.20;;
12886;SDS011;6511;49.746;6.094;2022-09-28T09:36:28;6.35;;;3.47;;
12886;SDS011;6511;49.746;6.094;2022-09-28T09:41:53;6.85;;;2.60;;
12886;SDS011;6511;49.746;6.094;2022-09-28T09:44:36;5.78;;;2.50;;
12886;SDS011;6511;49.746;6.094;2022-09-28T09:47:36;5.38;;;2.28;;
12886;SDS011;6511;49.746;6.094;2022-09-28T09:55:38;5.67;;;2.10;;
12886;SDS011;6511;49.746;6.094;2022-09-28T10:01:12;5.35;;;2.70;;
12886;SDS011;6511;49.746;6.094;2022-09-28T10:03:41;5.25;;;3.00;;
12886;SDS011;6511;49.746;6.094;2022-09-28T10:06:16;4.63;;;2.17;;
12886;SDS011;6511;49.746;6.094;2022-09-28T10:08:51;4.88;;;2.33;;
12886;SDS011;6511;49.746;6.094;2022-09-28T10:11:34;4.22;;;2.20;;
12886;SDS011;6511;49.746;6.094;2022-09-28T10:14:03;4.13;;;2.25;;
12886;SDS011;6511;49.746;6.094;2022-09-28T10:16:31;4.90;;;2.50;;
12886;SDS011;6511;49.746;6.094;2022-09-28T10:18:58;3.83;;;1.70;;
12886;SDS011;6511;49.746;6.094;2022-09-28T10:21:24;4.53;;;2.00;;
12886;SDS011;6511;49.746;6.094;2022-09-28T10:23:56;4.38;;;2.05;;
12886;SDS011;6511;49.746;6.094;2022-09-28T10:26:34;5.63;;;2.30;;
12886;SDS011;6511;49.746;6.094;2022-09-28T10:29:04;4.65;;;2.10;;
12886;SDS011;6511;49.746;6.094;2022-09-28T10:31:44;4.53;;;1.95;;
12886;SDS011;6511;49.746;6.094;2022-09-28T10:34:12;4.20;;;2.00;;
12886;SDS011;6511;49.746;6.094;2022-09-28T10:36:51;4.07;;;1.90;;
12886;SDS011;6511;49.746;6.094;2022-09-28T10:41:56;4.15;;;1.90;;
12886;SDS011;6511;49.746;6.094;2022-09-28T10:44:23;4.28;;;1.98;;
12886;SDS011;6511;49.746;6.094;2022-09-28T10:46:58;5.13;;;2.10;;
12886;SDS011;6511;49.746;6.094;2022-09-28T10:49:39;5.55;;;2.00;;
12886;SDS011;6511;49.746;6.094;2022-09-28T10:52:28;7.82;;;3.10;;
12886;SDS011;6511;49.746;6.094;2022-09-28T10:54:59;5.93;;;2.20;;
12886;SDS011;6511;49.746;6.094;2022-09-28T10:57:34;4.30;;;2.35;;
12886;SDS011;6511;49.746;6.094;2022-09-28T11:00:02;5.53;;;2.30;;
12886;SDS011;6511;49.746;6.094;2022-09-28T11:02:34;4.53;;;2.13;;
12886;SDS011;6511;49.746;6.094;2022-09-28T11:05:01;6.90;;;2.38;;
12886;SDS011;6511;49.746;6.094;2022-09-28T11:07:30;4.07;;;2.28;;
12886;SDS011;6511;49.746;6.094;2022-09-28T11:09:57;5.63;;;2.70;;
12886;SDS011;6511;49.746;6.094;2022-09-28T11:12:29;3.53;;;2.00;;
12886;SDS011;6511;49.746;6.094;2022-09-28T11:15:04;5.28;;;2.13;;
12886;SDS011;6511;49.746;6.094;2022-09-28T11:17:35;4.43;;;1.97;;
12886;SDS011;6511;49.746;6.094;2022-09-28T11:22:49;4.10;;;2.00;;
12886;SDS011;6511;49.746;6.094;2022-09-28T11:25:20;3.67;;;1.80;;
12886;SDS011;6511;49.746;6.094;2022-09-28T11:33:19;5.37;;;2.10;;
12886;SDS011;6511;49.746;6.094;2022-09-28T11:38:47;4.03;;;2.25;;
12886;SDS011;6511;49.746;6.094;2022-09-28T11:41:34;3.72;;;2.05;;
12886;SDS011;6511;49.746;6.094;2022-09-28T11:49:51;3.00;;;1.90;;
12886;SDS011;6511;49.746;6.094;2022-09-28T11:52:33;3.67;;;1.43;;
12886;SDS011;6511;49.746;6.094;2022-09-28T11:55:13;4.03;;;1.90;;
12886;SDS011;6511;49.746;6.094;2022-09-28T11:57:42;3.78;;;1.80;;
12886;SDS011;6511;49.746;6.094;2022-09-28T12:00:14;3.23;;;1.87;;
12886;SDS011;6511;49.746;6.094;2022-09-28T12:07:44;4.07;;;1.98;;
12886;SDS011;6511;49.746;6.094;2022-09-28T12:10:20;5.03;;;1.90;;
12886;SDS011;6511;49.746;6.094;2022-09-28T12:12:59;3.95;;;2.00;;
12886;SDS011;6511;49.746;6.094;2022-09-28T12:18:51;3.28;;;1.50;;
12886;SDS011;6511;49.746;6.094;2022-09-28T12:24:19;4.53;;;1.92;;
12886;SDS011;6511;49.746;6.094;2022-09-28T12:27:00;4.30;;;1.80;;
12886;SDS011;6511;49.746;6.094;2022-09-28T12:29:39;3.63;;;2.03;;
12886;SDS011;6511;49.746;6.094;2022-09-28T12:34:38;3.70;;;2.20;;
12886;SDS011;6511;49.746;6.094;2022-09-28T12:53:35;5.30;;;1.70;;
12886;SDS011;6511;49.746;6.094;2022-09-28T13:10:25;4.03;;;1.52;;
12886;SDS011;6511;49.746;6.094;2022-09-28T13:13:06;3.63;;;1.73;;
12886;SDS011;6511;49.746;6.094;2022-09-28T13:15:40;4.15;;;1.70;;
12886;SDS011;6511;49.746;6.094;2022-09-28T13:20:51;4.07;;;1.70;;
12886;SDS011;6511;49.746;6.094;2022-09-28T13:23:43;5.13;;;1.80;;
12886;SDS011;6511;49.746;6.094;2022-09-28T13:29:09;3.88;;;1.80;;
12886;SDS011;6511;49.746;6.094;2022-09-28T13:31:44;4.30;;;1.70;;
12886;SDS011;6511;49.746;6.094;2022-09-28T13:34:16;4.60;;;1.80;;
12886;SDS011;6511;49.746;6.094;2022-09-28T13:37:06;4.10;;;1.83;;
12886;SDS011;6511;49.746;6.094;2022-09-28T13:58:48;4.57;;;2.10;;
12886;SDS011;6511;49.746;6.094;2022-09-28T14:01:36;4.77;;;2.13;;
12886;SDS011;6511;49.746;6.094;2022-09-28T14:04:18;4.50;;;2.35;;
12886;SDS011;6511;49.746;6.094;2022-09-28T14:11:56;5.68;;;2.90;;
12886;SDS011;6511;49.746;6.094;2022-09-28T14:22:39;4.57;;;2.55;;
12886;SDS011;6511;49.746;6.094;2022-09-28T14:25:31;5.63;;;2.60;;
12886;SDS011;6511;49.746;6.094;2022-09-28T14:30:51;3.80;;;1.90;;
12886;SDS011;6511;49.746;6.094;2022-09-28T14:33:29;2.67;;;1.70;;
12886;SDS011;6511;49.746;6.094;2022-09-28T14:35:56;3.95;;;1.60;;
12886;SDS011;6511;49.746;6.094;2022-09-28T14:38:35;3.20;;;1.60;;
12886;SDS011;6511;49.746;6.094;2022-09-28T14:41:35;2.10;;;1.50;;
12886;SDS011;6511;49.746;6.094;2022-09-28T14:46:34;2.38;;;1.75;;
12886;SDS011;6511;49.746;6.094;2022-09-28T14:56:39;1.60;;;1.10;;
12886;SDS011;6511;49.746;6.094;2022-09-28T14:59:06;1.38;;;0.93;;
12886;SDS011;6511;49.746;6.094;2022-09-28T15:01:49;4.28;;;1.20;;
12886;SDS011;6511;49.746;6.094;2022-09-28T15:04:17;2.33;;;1.60;;
12886;SDS011;6511;49.746;6.094;2022-09-28T15:07:04;3.20;;;1.83;;
12886;SDS011;6511;49.746;6.094;2022-09-28T15:12:03;2.35;;;1.30;;
12886;SDS011;6511;49.746;6.094;2022-09-28T15:14:34;3.25;;;1.92;;
12886;SDS011;6511;49.746;6.094;2022-09-28T15:17:30;3.53;;;1.40;;
12886;SDS011;6511;49.746;6.094;2022-09-28T15:22:54;2.60;;;1.38;;
12886;SDS011;6511;49.746;6.094;2022-09-28T15:25:29;2.65;;;1.00;;
12886;SDS011;6511;49.746;6.094;2022-09-28T15:27:57;2.15;;;1.20;;
12886;SDS011;6511;49.746;6.094;2022-09-28T15:30:28;1.63;;;1.00;;
12886;SDS011;6511;49.746;6.094;2022-09-28T15:32:56;1.83;;;0.80;;
12886;SDS011;6511;49.746;6.094;2022-09-28T15:35:44;2.88;;;1.10;;
12886;SDS011;6511;49.746;6.094;2022-09-28T15:38:20;2.63;;;1.17;;
12886;SDS011;6511;49.746;6.094;2022-09-28T15:40:46;2.33;;;1.20;;
12886;SDS011;6511;49.746;6.094;2022-09-28T15:43:19;2.50;;;1.10;;
12886;SDS011;6511;49.746;6.094;2022-09-28T15:46:11;2.40;;;1.20;;
12886;SDS011;6511;49.746;6.094;2022-09-28T15:48:56;2.20;;;1.33;;
12886;SDS011;6511;49.746;6.094;2022-09-28T15:51:23;2.38;;;1.25;;
12886;SDS011;6511;49.746;6.094;2022-09-28T15:53:53;3.03;;;1.20;;
12886;SDS011;6511;49.746;6.094;2022-09-28T15:56:55;2.75;;;1.40;;
12886;SDS011;6511;49.746;6.094;2022-09-28T15:59:33;2.38;;;1.42;;
12886;SDS011;6511;49.746;6.094;2022-09-28T16:07:53;3.40;;;1.50;;
12886;SDS011;6511;49.746;6.094;2022-09-28T16:12:47;2.90;;;1.40;;
12886;SDS011;6511;49.746;6.094;2022-09-28T16:17:58;2.25;;;1.40;;
12886;SDS011;6511;49.746;6.094;2022-09-28T16:20:48;2.35;;;1.13;;
12886;SDS011;6511;49.746;6.094;2022-09-28T16:23:21;1.77;;;1.08;;
12886;SDS011;6511;49.746;6.094;2022-09-28T16:25:50;2.30;;;1.17;;
12886;SDS011;6511;49.746;6.094;2022-09-28T16:28:24;3.42;;;1.45;;
12886;SDS011;6511;49.746;6.094;2022-09-28T16:31:00;2.20;;;1.30;;
12886;SDS011;6511;49.746;6.094;2022-09-28T16:36:48;3.40;;;1.33;;
12886;SDS011;6511;49.746;6.094;2022-09-28T16:39:15;2.50;;;1.27;;
12886;SDS011;6511;49.746;6.094;2022-09-28T16:41:43;3.10;;;1.20;;
12886;SDS011;6511;49.746;6.094;2022-09-28T16:44:23;2.20;;;1.30;;
12886;SDS011;6511;49.746;6.094;2022-09-28T16:46:52;3.03;;;1.30;;
12886;SDS011;6511;49.746;6.094;2022-09-28T16:49:21;4.20;;;1.80;;
12886;SDS011;6511;49.746;6.094;2022-09-28T16:51:49;4.28;;;2.75;;
12886;SDS011;6511;49.746;6.094;2022-09-28T16:54:16;5.07;;;2.40;;
12886;SDS011;6511;49.746;6.094;2022-09-28T16:57:04;3.08;;;1.88;;
12886;SDS011;6511;49.746;6.094;2022-09-28T16:59:31;3.07;;;1.80;;
12886;SDS011;6511;49.746;6.094;2022-09-28T17:01:57;3.15;;;1.90;;
12886;SDS011;6511;49.746;6.094;2022-09-28T17:04:41;2.63;;;1.50;;
12886;SDS011;6511;49.746;6.094;2022-09-28T17:07:07;2.57;;;1.43;;
12886;SDS011;6511;49.746;6.094;2022-09-28T17:09:36;4.53;;;1.83;;
12886;SDS011;6511;49.746;6.094;2022-09-28T17:12:01;2.97;;;2.20;;
12886;SDS011;6511;49.746;6.094;2022-09-28T17:14:30;5.30;;;2.40;;
12886;SDS011;6511;49.746;6.094;2022-09-28T17:16:56;3.17;;;2.50;;
12886;SDS011;6511;49.746;6.094;2022-09-28T17:19:23;4.05;;;2.90;;
12886;SDS011;6511;49.746;6.094;2022-09-28T17:21:50;3.63;;;2.78;;
12886;SDS011;6511;49.746;6.094;2022-09-28T17:24:16;3.60;;;2.60;;
12886;SDS011;6511;49.746;6.094;2022-09-28T17:26:46;2.85;;;2.50;;
12886;SDS011;6511;49.746;6.094;2022-09-28T17:29:14;3.20;;;2.50;;
12886;SDS011;6511;49.746;6.094;2022-09-28T17:31:41;4.40;;;2.70;;
12886;SDS011;6511;49.746;6.094;2022-09-28T17:34:08;3.97;;;2.47;;
12886;SDS011;6511;49.746;6.094;2022-09-28T17:36:35;4.67;;;2.90;;
12886;SDS011;6511;49.746;6.094;2022-09-28T17:39:01;3.88;;;3.10;;
12886;SDS011;6511;49.746;6.094;2022-09-28T17:41:27;4.28;;;3.10;;
12886;SDS011;6511;49.746;6.094;2022-09-28T17:43:53;6.95;;;4.68;;
12886;SDS011;6511;49.746;6.094;2022-09-28T17:48:55;6.37;;;4.50;;
12886;SDS011;6511;49.746;6.094;2022-09-28T17:51:24;6.85;;;4.97;;
12886;SDS011;6511;49.746;6.094;2022-09-28T17:53:54;7.32;;;5.20;;
12886;SDS011;6511;49.746;6.094;2022-09-28T17:56:21;7.47;;;5.38;;
12886;SDS011;6511;49.746;6.094;2022-09-28T17:58:50;5.57;;;4.03;;
12886;SDS011;6511;49.746;6.094;2022-09-28T18:01:17;5.13;;;4.60;;
12886;SDS011;6511;49.746;6.094;2022-09-28T18:03:49;5.03;;;4.37;;
12886;SDS011;6511;49.746;6.094;2022-09-28T18:06:15;5.25;;;4.45;;
12886;SDS011;6511;49.746;6.094;2022-09-28T18:08:47;5.10;;;4.60;;
12886;SDS011;6511;49.746;6.094;2022-09-28T18:11:14;8.02;;;4.95;;
12886;SDS011;6511;49.746;6.094;2022-09-28T18:13:42;6.35;;;4.40;;
12886;SDS011;6511;49.746;6.094;2022-09-28T18:16:13;8.23;;;4.40;;
12886;SDS011;6511;49.746;6.094;2022-09-28T18:18:39;5.57;;;4.47;;
12886;SDS011;6511;49.746;6.094;2022-09-28T18:21:05;5.83;;;4.20;;
12886;SDS011;6511;49.746;6.094;2022-09-28T18:23:33;45.30;;;33.23;;
12886;SDS011;6511;49.746;6.094;2022-09-28T18:26:01;7.53;;;4.25;;
12886;SDS011;6511;49.746;6.094;2022-09-28T18:28:27;4.68;;;4.03;;
12886;SDS011;6511;49.746;6.094;2022-09-28T18:30:53;5.73;;;4.63;;
12886;SDS011;6511;49.746;6.094;2022-09-28T18:33:20;6.68;;;5.00;;
12886;SDS011;6511;49.746;6.094;2022-09-28T18:35:57;6.65;;;5.70;;
12886;SDS011;6511;49.746;6.094;2022-09-28T18:38:26;7.18;;;6.43;;
12886;SDS011;6511;49.746;6.094;2022-09-28T18:40:51;6.82;;;6.13;;
12886;SDS011;6511;49.746;6.094;2022-09-28T18:43:28;9.93;;;6.85;;
12886;SDS011;6511;49.746;6.094;2022-09-28T18:46:06;8.55;;;7.15;;
12886;SDS011;6511;49.746;6.094;2022-09-28T18:48:33;7.87;;;7.03;;